createdAt,value
2022-08-20T00:02:09.547Z,100316.25
2022-08-20T00:04:36.564Z,100327.78
2022-08-20T00:07:06.468Z,100328.03
2022-08-20T00:09:36.918Z,100320.72
2022-08-20T00:12:05.703Z,100321.78
2022-08-20T00:14:33.956Z,100321.34
2022-08-20T00:17:01.377Z,100322.84
2022-08-20T00:19:28.173Z,100326.41
2022-08-20T00:21:57.978Z,100336.88
2022-08-20T00:24:24.969Z,100331.50
2022-08-20T00:26:52.557Z,100341.22
2022-08-20T00:29:20.236Z,100330.13
2022-08-20T00:31:46.875Z,100328.16
2022-08-20T00:34:13.388Z,100325.94
2022-08-20T00:36:40.000Z,100332.97
2022-08-20T00:39:06.563Z,100317.34
2022-08-20T00:41:33.096Z,100306.84
2022-08-20T00:44:05.630Z,100317.03
2022-08-20T00:46:32.272Z,100320.72
2022-08-20T00:48:59.875Z,100333.13
2022-08-20T00:51:44.185Z,100331.66
2022-08-20T00:54:24.912Z,100330.88
2022-08-20T00:57:03.519Z,100335.72
2022-08-20T00:59:33.256Z,100345.50
2022-08-20T01:02:01.302Z,100344.00
2022-08-20T01:04:33.797Z,100330.88
2022-08-20T01:07:00.928Z,100334.59
2022-08-20T01:09:49.469Z,100313.84
2022-08-20T01:12:15.607Z,100302.78
2022-08-20T01:14:46.234Z,100303.59
2022-08-20T01:17:19.771Z,100302.22
2022-08-20T01:19:50.249Z,100311.19
2022-08-20T01:22:43.935Z,100313.72
2022-08-20T01:25:16.871Z,100314.69
2022-08-20T01:27:45.085Z,100313.97
2022-08-20T01:30:12.766Z,100305.75
2022-08-20T01:32:39.399Z,100303.69
2022-08-20T01:35:06.916Z,100303.38
2022-08-20T01:37:33.420Z,100307.38
2022-08-20T01:40:00.624Z,100302.00
2022-08-20T01:42:35.963Z,100297.38
2022-08-20T01:45:05.709Z,100300.19
2022-08-20T01:47:38.427Z,100305.59
2022-08-20T01:50:16.798Z,100306.41
2022-08-20T01:53:22.253Z,100308.56
2022-08-20T01:55:49.057Z,100312.94
2022-08-20T01:58:15.647Z,100320.44
2022-08-20T02:00:43.677Z,100321.94
2022-08-20T02:03:10.211Z,100325.53
2022-08-20T02:05:36.748Z,100333.31
2022-08-20T02:08:04.517Z,100330.69
2022-08-20T02:10:33.829Z,100339.25
2022-08-20T02:13:01.028Z,100331.44
2022-08-20T02:15:34.464Z,100330.69
2022-08-20T02:18:08.273Z,100326.16
2022-08-20T02:20:35.979Z,100330.69
2022-08-20T02:23:03.706Z,100316.66
2022-08-20T02:25:32.800Z,100315.13
2022-08-20T02:28:02.414Z,100318.22
2022-08-20T02:30:33.381Z,100320.47
2022-08-20T02:33:01.814Z,100327.44
2022-08-20T02:35:30.676Z,100329.72
2022-08-20T02:38:01.283Z,100333.72
2022-08-20T02:40:30.996Z,100321.19
2022-08-20T02:43:01.917Z,100325.78
2022-08-20T02:45:29.899Z,100343.28
2022-08-20T02:47:57.631Z,100349.44
2022-08-20T02:50:26.140Z,100364.28
2022-08-20T02:52:52.710Z,100362.84
2022-08-20T02:55:26.985Z,100367.53
2022-08-20T02:58:00.078Z,100361.41
2022-08-20T03:00:28.341Z,100364.06
2022-08-20T03:02:54.861Z,100364.28
2022-08-20T03:05:21.402Z,100369.44
2022-08-20T03:07:50.562Z,100370.31
2022-08-20T03:10:17.564Z,100375.59
2022-08-20T03:12:44.113Z,100374.22
2022-08-20T03:15:17.514Z,100368.16
2022-08-20T03:17:44.775Z,100376.03
2022-08-20T03:20:13.167Z,100378.28
2022-08-20T03:22:40.167Z,100377.63
2022-08-20T03:25:07.686Z,100383.34
2022-08-20T03:27:36.489Z,100380.88
2022-08-20T03:30:07.118Z,100401.78
2022-08-20T03:32:33.676Z,100389.94
2022-08-20T03:35:01.788Z,100401.97
2022-08-20T03:37:31.375Z,100407.34
2022-08-20T03:39:58.791Z,100390.78
2022-08-20T03:42:25.822Z,100405.00
2022-08-20T03:44:58.579Z,100407.59
2022-08-20T03:47:26.306Z,100409.63
2022-08-20T03:49:55.944Z,100413.53
2022-08-20T03:52:22.398Z,100412.22
2022-08-20T03:54:49.412Z,100421.38
2022-08-20T03:57:16.499Z,100432.31
2022-08-20T03:59:44.517Z,100423.28
2022-08-20T04:02:12.240Z,100418.75
2022-08-20T04:04:41.004Z,100425.63
2022-08-20T04:07:13.185Z,100417.13
2022-08-20T04:09:39.975Z,100417.84
2022-08-20T04:12:07.474Z,100428.63
2022-08-20T04:14:36.283Z,100427.50
2022-08-20T04:17:08.579Z,100431.13
2022-08-20T04:19:36.602Z,100441.44
2022-08-20T04:22:03.203Z,100442.13
2022-08-20T04:24:32.449Z,100439.19
2022-08-20T04:27:00.126Z,100443.78
2022-08-20T04:29:32.689Z,100434.19
2022-08-20T04:32:00.633Z,100443.28
2022-08-20T04:34:29.923Z,100437.72
2022-08-20T04:36:56.809Z,100439.81
2022-08-20T04:39:23.728Z,100431.25
2022-08-20T04:41:50.295Z,100431.28
2022-08-20T04:44:16.767Z,100425.16
2022-08-20T04:46:43.668Z,100428.84
2022-08-20T04:51:37.127Z,100434.81
2022-08-20T04:54:04.529Z,100436.31
2022-08-20T04:56:34.816Z,100436.38
2022-08-20T04:59:01.730Z,100428.72
2022-08-20T05:01:28.399Z,100428.06
2022-08-20T05:03:55.782Z,100422.28
2022-08-20T05:06:30.946Z,100420.28
2022-08-20T05:09:00.785Z,100432.38
2022-08-20T05:11:35.966Z,100425.22
2022-08-20T05:14:09.469Z,100428.50
2022-08-20T05:16:39.291Z,100430.16
2022-08-20T05:19:10.480Z,100433.59
2022-08-20T05:21:37.509Z,100423.66
2022-08-20T05:24:05.092Z,100427.34
2022-08-20T05:26:33.237Z,100424.41
2022-08-20T05:29:02.217Z,100425.25
2022-08-20T05:31:32.603Z,100419.50
2022-08-20T05:34:10.793Z,100413.97
2022-08-20T05:36:44.173Z,100423.44
2022-08-20T05:39:11.630Z,100423.22
2022-08-20T05:41:39.823Z,100430.34
2022-08-20T05:44:11.379Z,100423.47
2022-08-20T05:46:41.258Z,100414.94
2022-08-20T05:49:16.362Z,100422.56
2022-08-20T05:51:46.856Z,100427.41
2022-08-20T05:54:14.078Z,100421.97
2022-08-20T05:56:42.528Z,100424.56
2022-08-20T05:59:10.545Z,100424.06
2022-08-20T06:01:38.767Z,100430.63
2022-08-20T06:04:25.817Z,100431.47
2022-08-20T06:06:54.931Z,100431.72
2022-08-20T06:09:30.921Z,100419.66
2022-08-20T06:11:59.966Z,100419.22
2022-08-20T06:14:27.527Z,100407.63
2022-08-20T06:16:57.766Z,100417.00
2022-08-20T06:19:26.535Z,100411.16
2022-08-20T06:21:53.954Z,100419.13
2022-08-20T06:24:23.312Z,100427.03
2022-08-20T06:26:55.968Z,100431.84
2022-08-20T06:29:22.472Z,100427.22
2022-08-20T06:31:51.285Z,100424.59
2022-08-20T06:34:18.846Z,100429.28
2022-08-20T06:36:46.818Z,100432.41
2022-08-20T06:39:15.267Z,100432.41
2022-08-20T06:41:42.306Z,100438.91
2022-08-20T06:44:08.949Z,100432.38
2022-08-20T06:46:36.197Z,100431.09
2022-08-20T06:49:04.569Z,100429.28
2022-08-20T06:51:32.609Z,100431.22
2022-08-20T06:53:59.187Z,100439.50
2022-08-20T06:56:25.756Z,100445.94
2022-08-20T06:58:52.314Z,100443.53
2022-08-20T07:01:21.015Z,100450.91
2022-08-20T07:03:54.780Z,100451.09
2022-08-20T07:06:25.531Z,100456.28
2022-08-20T07:08:53.311Z,100452.34
2022-08-20T07:11:24.961Z,100453.00
2022-08-20T07:13:54.245Z,100455.09
2022-08-20T07:16:20.748Z,100457.50
2022-08-20T07:18:47.230Z,100457.09
2022-08-20T07:21:13.829Z,100463.88
2022-08-20T07:23:42.163Z,100459.88
2022-08-20T07:26:08.717Z,100466.09
2022-08-20T07:28:35.336Z,100470.94
2022-08-20T07:31:20.998Z,100465.84
2022-08-20T07:33:47.712Z,100468.72
2022-08-20T07:36:18.242Z,100470.75
2022-08-20T07:38:50.943Z,100469.22
2022-08-20T07:41:17.612Z,100471.81
2022-08-20T07:43:45.961Z,100474.31
2022-08-20T07:46:20.812Z,100471.03
2022-08-20T07:48:50.107Z,100478.19
2022-08-20T07:51:22.474Z,100480.78
2022-08-20T07:53:50.631Z,100483.69
2022-08-20T07:56:22.521Z,100485.81
2022-08-20T07:59:00.033Z,100490.16
2022-08-20T08:01:32.734Z,100488.75
2022-08-20T08:04:00.103Z,100486.44
2022-08-20T08:06:31.895Z,100495.44
2022-08-20T08:09:10.272Z,100505.72
2022-08-20T08:11:39.441Z,100507.41
2022-08-20T08:14:08.366Z,100503.16
2022-08-20T08:16:36.242Z,100504.81
2022-08-20T08:19:07.008Z,100512.78
2022-08-20T08:21:33.584Z,100512.28
2022-08-20T08:24:00.549Z,100516.00
2022-08-20T08:26:29.189Z,100509.44
2022-08-20T08:28:56.708Z,100510.84
2022-08-20T08:31:25.215Z,100512.72
2022-08-20T08:33:51.779Z,100511.09
2022-08-20T08:36:18.359Z,100515.97
2022-08-20T08:38:45.852Z,100518.81
2022-08-20T08:41:20.924Z,100520.66
2022-08-20T08:43:50.605Z,100518.38
2022-08-20T08:46:22.646Z,100522.78
2022-08-20T08:48:53.418Z,100512.75
2022-08-20T08:51:29.271Z,100506.84
2022-08-20T08:53:56.851Z,100509.63
2022-08-20T08:56:30.678Z,100508.47
2022-08-20T08:59:08.638Z,100511.22
2022-08-20T09:01:54.752Z,100504.34
2022-08-20T09:04:27.169Z,100513.19
2022-08-20T09:06:56.515Z,100504.88
2022-08-20T09:09:34.111Z,100509.63
2022-08-20T09:12:07.862Z,100502.94
2022-08-20T09:14:35.021Z,100501.53
2022-08-20T09:17:01.648Z,100499.50
2022-08-20T09:19:28.495Z,100494.50
2022-08-20T09:21:55.118Z,100500.69
2022-08-20T09:24:21.604Z,100502.50
2022-08-20T09:26:48.078Z,100498.59
2022-08-20T09:29:15.051Z,100502.38
2022-08-20T09:31:41.767Z,100499.38
2022-08-20T09:34:08.572Z,100494.97
2022-08-20T09:36:37.485Z,100498.94
2022-08-20T09:39:04.256Z,100493.72
2022-08-20T09:41:33.822Z,100490.47
2022-08-20T09:44:01.430Z,100489.28
2022-08-20T09:46:27.925Z,100502.16
2022-08-20T09:48:54.990Z,100489.97
2022-08-20T09:51:21.876Z,100489.16
2022-08-20T09:53:48.983Z,100485.13
2022-08-20T09:56:15.640Z,100489.16
2022-08-20T09:58:50.726Z,100492.91
2022-08-20T10:01:19.854Z,100491.50
2022-08-20T10:03:52.101Z,100484.25
2022-08-20T10:06:20.937Z,100485.91
2022-08-20T10:08:49.858Z,100493.44
2022-08-20T10:11:18.020Z,100484.53
2022-08-20T10:13:44.620Z,100492.63
2022-08-20T10:16:11.138Z,100497.09
2022-08-20T10:18:37.692Z,100495.09
2022-08-20T10:21:09.586Z,100502.66
2022-08-20T10:23:36.060Z,100485.75
2022-08-20T10:26:02.560Z,100489.41
2022-08-20T10:28:29.077Z,100492.00
2022-08-20T10:30:55.545Z,100487.88
2022-08-20T10:33:22.221Z,100485.94
2022-08-20T10:35:48.688Z,100479.13
2022-08-20T10:38:15.754Z,100469.06
2022-08-20T10:40:42.602Z,100471.41
2022-08-20T10:43:18.768Z,100469.59
2022-08-20T10:45:45.283Z,100473.53
2022-08-20T10:48:11.750Z,100478.66
2022-08-20T10:50:38.235Z,100467.22
2022-08-20T10:53:04.781Z,100458.63
2022-08-20T10:55:31.246Z,100464.34
2022-08-20T10:57:59.322Z,100460.94
2022-08-20T11:00:26.349Z,100467.63
2022-08-20T11:02:52.821Z,100473.22
2022-08-20T11:05:19.818Z,100476.25
2022-08-20T11:07:54.711Z,100483.78
2022-08-20T11:10:24.191Z,100472.31
2022-08-20T11:12:50.857Z,100465.84
2022-08-20T11:15:17.367Z,100467.50
2022-08-20T11:17:44.263Z,100472.91
2022-08-20T11:20:19.079Z,100464.09
2022-08-20T11:22:45.896Z,100473.91
2022-08-20T11:25:13.675Z,100476.63
2022-08-20T11:27:43.189Z,100475.75
2022-08-20T11:30:16.224Z,100470.16
2022-08-20T11:32:42.751Z,100479.00
2022-08-20T11:35:40.450Z,100467.69
2022-08-20T11:37:57.266Z,100473.50
2022-08-20T11:40:24.918Z,100469.13
2022-08-20T11:43:13.766Z,100468.31
2022-08-20T11:45:38.565Z,100475.25
2022-08-20T11:48:05.482Z,100462.25
2022-08-20T11:50:32.155Z,100467.09
2022-08-20T11:53:01.547Z,100463.34
2022-08-20T11:55:30.476Z,100465.31
2022-08-20T11:57:59.795Z,100456.84
2022-08-20T12:00:32.039Z,100452.16
2022-08-20T12:03:01.318Z,100450.03
2022-08-20T12:05:29.830Z,100449.34
2022-08-20T12:07:57.447Z,100453.44
2022-08-20T12:10:26.350Z,100448.94
2022-08-20T12:12:53.013Z,100451.81
2022-08-20T12:15:21.042Z,100450.22
2022-08-20T12:17:47.622Z,100458.06
2022-08-20T12:20:15.910Z,100454.41
2022-08-20T12:22:43.811Z,100452.03
2022-08-20T12:25:10.546Z,100457.81
2022-08-20T12:27:38.210Z,100459.69
2022-08-20T12:30:11.635Z,100464.19
2022-08-20T12:32:38.558Z,100458.63
2022-08-20T12:35:06.963Z,100464.78
2022-08-20T12:37:33.557Z,100474.25
2022-08-20T12:40:01.355Z,100467.56
2022-08-20T12:42:30.329Z,100466.94
2022-08-20T12:44:58.002Z,100458.69
2022-08-20T12:47:29.839Z,100459.75
2022-08-20T12:50:01.080Z,100456.00
2022-08-20T12:52:29.695Z,100453.56
2022-08-20T12:54:56.820Z,100466.94
2022-08-20T12:57:32.616Z,100475.16
2022-08-20T13:00:13.533Z,100492.19
2022-08-20T13:02:41.344Z,100509.69
2022-08-20T13:05:09.392Z,100520.28
2022-08-20T13:07:36.372Z,100512.38
2022-08-20T13:10:03.979Z,100499.25
2022-08-20T13:12:31.072Z,100505.63
2022-08-20T13:14:57.616Z,100479.63
2022-08-20T13:17:38.140Z,100456.19
2022-08-20T13:20:09.605Z,100454.63
2022-08-20T13:22:36.498Z,100482.31
2022-08-20T13:25:03.974Z,100500.56
2022-08-20T13:27:30.551Z,100508.44
2022-08-20T13:29:59.047Z,100498.53
2022-08-20T13:32:26.067Z,100499.69
2022-08-20T13:34:52.682Z,100496.53
2022-08-20T13:37:25.098Z,100494.13
2022-08-20T13:39:52.678Z,100500.41
2022-08-20T13:42:19.822Z,100501.81
2022-08-20T13:44:46.418Z,100494.88
2022-08-20T13:47:34.655Z,100492.09
2022-08-20T13:50:15.940Z,100492.19
2022-08-20T13:52:43.348Z,100492.31
2022-08-20T13:55:12.614Z,100495.59
2022-08-20T13:57:40.165Z,100501.97
2022-08-20T14:00:13.251Z,100499.41
2022-08-20T14:02:40.697Z,100504.19
2022-08-20T14:05:07.924Z,100507.78
2022-08-20T14:07:34.562Z,100500.88
2022-08-20T14:10:09.599Z,100494.06
2022-08-20T14:12:38.368Z,100483.44
2022-08-20T14:15:08.757Z,100475.19
2022-08-20T14:17:38.646Z,100481.34
2022-08-20T14:20:14.167Z,100487.06
2022-08-20T14:22:42.363Z,100500.16
2022-08-20T14:25:10.514Z,100508.16
2022-08-20T14:27:37.437Z,100520.19
2022-08-20T14:30:10.829Z,100531.56
2022-08-20T14:32:37.400Z,100536.00
2022-08-20T14:35:05.376Z,100534.69
2022-08-20T14:37:38.125Z,100521.47
2022-08-20T14:40:08.046Z,100508.66
2022-08-20T14:42:34.920Z,100513.81
2022-08-20T14:45:05.039Z,100524.25
2022-08-20T14:47:36.834Z,100526.31
2022-08-20T14:50:07.667Z,100533.53
2022-08-20T14:52:36.607Z,100527.59
2022-08-20T14:55:09.742Z,100525.22
2022-08-20T14:57:36.690Z,100509.81
2022-08-20T15:00:05.448Z,100512.97
2022-08-20T15:02:32.460Z,100514.25
2022-08-20T15:04:59.085Z,100506.94
2022-08-20T15:07:35.531Z,100501.34
2022-08-20T15:10:07.849Z,100499.38
2022-08-20T15:12:35.309Z,100505.50
2022-08-20T15:15:13.424Z,100515.88
2022-08-20T15:17:51.776Z,100520.91
2022-08-20T15:20:21.129Z,100525.78
2022-08-20T15:22:48.463Z,100535.69
2022-08-20T15:25:19.636Z,100539.91
2022-08-20T15:27:46.881Z,100539.88
2022-08-20T15:30:17.382Z,100535.16
2022-08-20T15:32:46.141Z,100531.06
2022-08-20T15:35:14.495Z,100536.59
2022-08-20T15:37:46.511Z,100529.09
2022-08-20T15:40:18.228Z,100528.78
2022-08-20T15:42:46.801Z,100520.56
2022-08-20T15:45:21.516Z,100537.34
2022-08-20T15:47:52.528Z,100549.16
2022-08-20T15:50:32.777Z,100555.09
2022-08-20T15:53:07.090Z,100549.50
2022-08-20T15:55:33.687Z,100543.34
2022-08-20T15:58:12.713Z,100537.75
2022-08-20T16:00:57.255Z,100550.13
2022-08-20T16:04:21.519Z,100542.31
2022-08-20T16:07:14.789Z,100545.38
2022-08-20T16:10:18.398Z,100552.69
2022-08-20T16:12:49.267Z,100547.22
2022-08-20T16:15:25.501Z,100544.44
2022-08-20T16:18:04.377Z,100542.34
2022-08-20T16:20:43.057Z,100535.56
2022-08-20T16:23:19.440Z,100532.44
2022-08-20T16:25:59.381Z,100533.41
2022-08-20T16:28:29.082Z,100531.44
2022-08-20T16:31:02.970Z,100531.56
2022-08-20T16:34:04.228Z,100532.00
2022-08-20T16:36:46.422Z,100540.63
2022-08-20T16:39:28.629Z,100536.13
2022-08-20T16:41:55.830Z,100544.00
2022-08-20T16:44:32.171Z,100541.03
2022-08-20T16:47:54.353Z,100545.25
2022-08-20T16:50:26.902Z,100550.06
2022-08-20T16:52:53.715Z,100552.41
2022-08-20T16:55:23.429Z,100542.81
2022-08-20T16:57:51.613Z,100541.03
2022-08-20T17:00:35.747Z,100542.19
2022-08-20T17:03:33.490Z,100558.44
2022-08-20T17:06:26.926Z,100569.63
2022-08-20T17:08:53.419Z,100569.44
2022-08-20T17:11:29.287Z,100552.69
2022-08-20T17:14:07.917Z,100556.41
2022-08-20T17:16:50.595Z,100565.47
2022-08-20T17:19:30.379Z,100561.66
2022-08-20T17:22:09.205Z,100553.88
2022-08-20T17:24:39.760Z,100554.03
2022-08-20T17:27:13.372Z,100557.19
2022-08-20T17:29:52.172Z,100567.41
2022-08-20T17:32:22.853Z,100560.59
2022-08-20T17:34:51.684Z,100568.16
2022-08-20T17:37:27.053Z,100565.09
2022-08-20T17:40:11.633Z,100563.44
2022-08-20T17:43:05.196Z,100568.06
2022-08-20T17:45:38.862Z,100559.56
2022-08-20T17:48:09.103Z,100569.28
2022-08-20T17:50:37.933Z,100575.97
2022-08-20T17:53:23.705Z,100587.06
2022-08-20T17:55:55.279Z,100581.53
2022-08-20T17:58:35.538Z,100587.28
2022-08-20T18:01:04.613Z,100579.16
2022-08-20T18:03:36.648Z,100577.88
2022-08-20T18:06:10.696Z,100570.50
2022-08-20T18:08:39.219Z,100574.88
2022-08-20T18:11:20.975Z,100573.53
2022-08-20T18:14:30.601Z,100583.34
2022-08-20T18:17:09.027Z,100589.50
2022-08-20T18:20:12.199Z,100588.81
2022-08-20T18:22:48.983Z,100596.38
2022-08-20T18:25:39.562Z,100599.22
2022-08-20T18:28:38.775Z,100610.06
2022-08-20T18:31:10.479Z,100615.91
2022-08-20T18:33:39.813Z,100610.75
2022-08-20T18:36:18.226Z,100605.59
2022-08-20T18:38:57.858Z,100604.50
2022-08-20T18:41:43.860Z,100601.94
2022-08-20T18:44:11.812Z,100597.56
2022-08-20T18:46:52.203Z,100597.56
2022-08-20T18:49:40.715Z,100592.59
2022-08-20T18:52:15.909Z,100590.94
2022-08-20T18:54:48.935Z,100592.34
2022-08-20T18:57:25.886Z,100588.31
2022-08-20T19:00:05.493Z,100590.91
2022-08-20T19:02:36.534Z,100597.31
2022-08-20T19:05:09.649Z,100592.50
2022-08-20T19:07:48.113Z,100590.75
2022-08-20T19:10:28.515Z,100586.66
2022-08-20T19:13:08.366Z,100594.34
2022-08-20T19:15:39.631Z,100587.47
2022-08-20T19:18:10.521Z,100576.25
2022-08-20T19:20:48.854Z,100564.09
2022-08-20T19:23:20.442Z,100555.25
2022-08-20T19:26:12.583Z,100561.72
2022-08-20T19:28:54.424Z,100567.66
2022-08-20T19:31:27.606Z,100578.50
2022-08-20T19:34:19.516Z,100587.78
2022-08-20T19:36:54.305Z,100566.59
2022-08-20T19:39:24.794Z,100554.91
2022-08-20T19:41:59.280Z,100551.19
2022-08-20T19:44:54.918Z,100541.16
2022-08-20T19:47:32.836Z,100544.66
2022-08-20T19:50:26.499Z,100546.81
2022-08-20T19:53:26.435Z,100548.59
2022-08-20T19:55:59.208Z,100566.16
2022-08-20T19:58:27.588Z,100558.00
2022-08-20T20:00:55.557Z,100553.41
2022-08-20T20:03:28.070Z,100561.25
2022-08-20T20:05:57.415Z,100567.06
2022-08-20T20:08:28.822Z,100579.88
2022-08-20T20:11:00.532Z,100575.69
2022-08-20T20:13:29.665Z,100583.03
2022-08-20T20:16:01.847Z,100582.25
2022-08-20T20:18:34.419Z,100583.72
2022-08-20T20:21:18.208Z,100568.81
2022-08-20T20:23:55.190Z,100582.69
2022-08-20T20:26:21.996Z,100582.63
2022-08-20T20:28:48.524Z,100586.31
2022-08-20T20:31:29.955Z,100584.69
2022-08-20T20:33:59.257Z,100580.84
2022-08-20T20:37:01.143Z,100583.16
2022-08-20T20:39:31.328Z,100586.72
2022-08-20T20:42:00.130Z,100588.72
2022-08-20T20:44:49.058Z,100588.41
2022-08-20T20:47:23.473Z,100582.25
2022-08-20T20:52:38.158Z,100581.34
2022-08-20T20:55:12.907Z,100587.16
2022-08-20T20:57:39.903Z,100586.38
2022-08-20T21:00:14.717Z,100576.78
2022-08-20T21:02:42.090Z,100569.56
2022-08-20T21:05:10.491Z,100577.75
2022-08-20T21:07:50.356Z,100575.13
2022-08-20T21:10:18.585Z,100562.66
2022-08-20T21:12:48.064Z,100566.13
2022-08-20T21:15:18.718Z,100567.94
2022-08-20T21:17:45.344Z,100574.50
2022-08-20T21:20:14.384Z,100562.84
2022-08-20T21:22:40.951Z,100553.94
2022-08-20T21:25:07.912Z,100548.56
2022-08-20T21:27:35.089Z,100554.47
2022-08-20T21:30:04.351Z,100549.69
2022-08-20T21:32:30.839Z,100561.78
2022-08-20T21:34:57.348Z,100546.75
2022-08-20T21:37:23.923Z,100544.03
2022-08-20T21:39:50.464Z,100531.91
2022-08-20T21:42:28.338Z,100524.31
2022-08-20T21:44:56.640Z,100528.97
2022-08-20T21:47:23.144Z,100527.19
2022-08-20T21:49:49.625Z,100534.25
2022-08-20T21:52:16.181Z,100521.63
2022-08-20T21:54:42.646Z,100527.72
2022-08-20T21:57:17.719Z,100537.78
2022-08-20T21:59:44.279Z,100554.13
2022-08-20T22:02:11.218Z,100548.75
2022-08-20T22:04:38.137Z,100562.38
2022-08-20T22:07:05.401Z,100570.59
2022-08-20T22:09:34.120Z,100561.94
2022-08-20T22:12:01.816Z,100562.41
2022-08-20T22:14:29.227Z,100559.66
2022-08-20T22:16:55.722Z,100550.38
2022-08-20T22:19:22.314Z,100549.66
2022-08-20T22:21:49.534Z,100531.19
2022-08-20T22:24:16.029Z,100529.31
2022-08-20T22:26:43.379Z,100528.13
2022-08-20T22:29:11.216Z,100538.84
2022-08-20T22:31:42.840Z,100544.84
2022-08-20T22:34:11.961Z,100552.31
2022-08-20T22:36:39.057Z,100557.81
2022-08-20T22:39:06.943Z,100554.94
2022-08-20T22:41:33.585Z,100533.91
2022-08-20T22:44:00.539Z,100546.28
2022-08-20T22:46:29.089Z,100550.34
2022-08-20T22:48:56.233Z,100554.97
2022-08-20T22:51:32.277Z,100552.28
2022-08-20T22:54:03.844Z,100541.69
2022-08-20T22:56:30.641Z,100529.19
2022-08-20T22:58:59.105Z,100529.38
2022-08-20T23:01:26.445Z,100533.34
2022-08-20T23:03:53.196Z,100541.09
2022-08-20T23:06:20.052Z,100535.34
2022-08-20T23:08:46.917Z,100526.69
2022-08-20T23:11:13.447Z,100524.66
2022-08-20T23:13:39.934Z,100525.41
2022-08-20T23:16:07.208Z,100524.72
2022-08-20T23:18:33.954Z,100527.75
2022-08-20T23:21:00.790Z,100518.13
2022-08-20T23:23:27.606Z,100512.41
2022-08-20T23:25:54.674Z,100506.78
2022-08-20T23:28:24.772Z,100514.09
2022-08-20T23:30:53.927Z,100519.72
2022-08-20T23:33:20.436Z,100513.78
2022-08-20T23:35:47.136Z,100514.53
2022-08-20T23:38:14.373Z,100523.41
2022-08-20T23:40:41.537Z,100518.47
2022-08-20T23:43:08.662Z,100513.16
2022-08-20T23:45:35.326Z,100515.09
2022-08-20T23:48:06.479Z,100513.66
2022-08-20T23:50:32.978Z,100517.88
2022-08-20T23:52:59.661Z,100524.69
2022-08-20T23:55:26.520Z,100515.84
2022-08-20T23:57:53.033Z,100520.34
